createdAt,value
2023-01-21T00:02:22.333Z,101796.41
2023-01-21T00:04:48.671Z,101802.97
2023-01-21T00:07:14.932Z,101803.84
2023-01-21T00:09:41.339Z,101806.81
2023-01-21T00:12:07.735Z,101820.56
2023-01-21T00:14:34.051Z,101824.41
2023-01-21T00:17:00.364Z,101826.63
2023-01-21T00:19:26.663Z,101825.75
2023-01-21T00:21:53.099Z,101831.53
2023-01-21T00:24:19.610Z,101836.47
2023-01-21T00:26:46.021Z,101831.22
2023-01-21T00:29:12.400Z,101839.75
2023-01-21T00:31:38.837Z,101846.06
2023-01-21T00:34:05.189Z,101844.41
2023-01-21T00:36:31.460Z,101851.84
2023-01-21T00:38:57.794Z,101853.75
2023-01-21T00:41:24.684Z,101855.91
2023-01-21T00:43:52.690Z,101859.75
2023-01-21T00:46:19.389Z,101859.22
2023-01-21T00:48:46.577Z,101867.16
2023-01-21T00:51:13.251Z,101868.47
2023-01-21T00:53:42.057Z,101872.59
2023-01-21T00:56:10.001Z,101875.63
2023-01-21T00:58:36.866Z,101886.28
2023-01-21T01:01:08.129Z,101888.22
2023-01-21T01:03:35.375Z,101896.47
2023-01-21T01:06:06.254Z,101893.72
2023-01-21T01:08:33.989Z,101895.88
2023-01-21T01:11:00.930Z,101898.63
2023-01-21T01:13:27.752Z,101906.03
2023-01-21T01:15:55.973Z,101905.22
2023-01-21T01:18:22.743Z,101910.16
2023-01-21T01:20:50.287Z,101917.81
2023-01-21T01:23:16.734Z,101916.75
2023-01-21T01:25:43.236Z,101926.31
2023-01-21T01:28:09.879Z,101930.16
2023-01-21T01:30:37.524Z,101940.31
2023-01-21T01:33:03.813Z,101943.06
2023-01-21T01:35:30.095Z,101952.38
2023-01-21T01:37:56.545Z,101952.38
2023-01-21T01:40:22.837Z,101952.63
2023-01-21T01:42:49.201Z,101961.72
2023-01-21T01:45:16.139Z,101963.91
2023-01-21T01:47:45.541Z,101960.81
2023-01-21T01:50:14.660Z,101974.81
2023-01-21T01:52:42.146Z,101980.56
2023-01-21T01:55:12.141Z,101976.41
2023-01-21T01:57:41.829Z,101984.94
2023-01-21T02:00:09.356Z,101984.09
2023-01-21T02:02:36.271Z,101986.84
2023-01-21T02:05:04.336Z,101988.75
2023-01-21T02:07:39.230Z,102002.47
2023-01-21T02:10:09.455Z,101996.16
2023-01-21T02:12:37.315Z,101992.56
2023-01-21T02:15:06.350Z,101999.72
2023-01-21T02:17:35.862Z,101995.31
2023-01-21T02:20:02.167Z,102010.97
2023-01-21T02:22:28.923Z,102013.16
2023-01-21T02:25:23.605Z,102008.72
2023-01-21T02:28:16.664Z,102009.25
2023-01-21T02:31:01.911Z,102011.69
2023-01-21T02:33:43.248Z,102011.34
2023-01-21T02:36:28.339Z,102009.13
2023-01-21T02:39:01.544Z,102020.34
2023-01-21T02:41:33.592Z,102017.03
2023-01-21T02:44:10.146Z,102011.81
2023-01-21T02:46:48.693Z,102015.88
2023-01-21T02:49:21.284Z,102026.03
2023-01-21T02:51:48.359Z,102019.97
2023-01-21T02:54:34.934Z,102017.22
2023-01-21T02:57:01.603Z,102026.78
2023-01-21T02:59:27.972Z,102028.72
2023-01-21T03:02:05.268Z,102030.63
2023-01-21T03:04:43.669Z,102031.72
2023-01-21T03:07:16.497Z,102038.28
2023-01-21T03:09:42.793Z,102039.34
2023-01-21T03:12:09.226Z,102030.28
2023-01-21T03:14:57.849Z,102041.28
2023-01-21T03:17:33.203Z,102036.06
2023-01-21T03:20:09.221Z,102032.47
2023-01-21T03:22:36.451Z,102038.47
2023-01-21T03:25:04.344Z,102046.97
2023-01-21T03:27:31.994Z,102051.03
2023-01-21T03:30:00.564Z,102051.53
2023-01-21T03:32:28.910Z,102052.03
2023-01-21T03:34:56.524Z,102061.34
2023-01-21T03:37:23.139Z,102065.19
2023-01-21T03:39:58.257Z,102057.44
2023-01-21T03:42:24.603Z,102056.03
2023-01-21T03:44:51.132Z,102064.50
2023-01-21T03:47:34.888Z,102061.22
2023-01-21T03:50:14.255Z,102062.53
2023-01-21T03:52:41.585Z,102066.34
2023-01-21T03:55:08.321Z,102060.03
2023-01-21T03:57:34.649Z,102065.19
2023-01-21T04:00:00.907Z,102063.53
2023-01-21T04:02:27.357Z,102063.78
2023-01-21T04:04:53.807Z,102072.25
2023-01-21T04:07:20.113Z,102074.16
2023-01-21T04:09:47.052Z,102065.38
2023-01-21T04:12:13.959Z,102081.00
2023-01-21T04:14:40.232Z,102084.22
2023-01-21T04:17:06.822Z,102082.31
2023-01-21T04:19:33.273Z,102084.50
2023-01-21T04:22:00.002Z,102082.81
2023-01-21T04:24:26.568Z,102099.25
2023-01-21T04:26:53.040Z,102092.13
2023-01-21T04:29:20.511Z,102095.13
2023-01-21T04:31:47.377Z,102102.50
2023-01-21T04:34:16.103Z,102102.50
2023-01-21T04:36:42.396Z,102102.50
2023-01-21T04:39:08.662Z,102102.50
2023-01-21T04:41:35.077Z,102104.16
2023-01-21T04:44:01.330Z,102103.91
2023-01-21T04:46:27.755Z,102107.75
2023-01-21T04:48:54.013Z,102108.56
2023-01-21T04:51:20.300Z,102106.91
2023-01-21T04:53:46.537Z,102109.66
2023-01-21T04:56:12.768Z,102116.22
2023-01-21T04:58:39.588Z,102117.06
2023-01-21T05:01:06.218Z,102113.50
2023-01-21T05:03:32.527Z,102121.47
2023-01-21T05:05:59.124Z,102118.97
2023-01-21T05:08:25.745Z,102125.53
2023-01-21T05:10:52.035Z,102126.59
2023-01-21T05:13:18.542Z,102122.19
2023-01-21T05:15:44.814Z,102126.28
2023-01-21T05:18:11.264Z,102122.94
2023-01-21T05:20:37.572Z,102125.94
2023-01-21T05:23:04.072Z,102129.75
2023-01-21T05:25:30.412Z,102128.94
2023-01-21T05:27:57.755Z,102139.91
2023-01-21T05:30:24.055Z,102139.91
2023-01-21T05:32:52.467Z,102137.38
2023-01-21T05:35:22.559Z,102143.69
2023-01-21T05:37:48.971Z,102146.44
2023-01-21T05:40:17.496Z,102147.53
2023-01-21T05:42:43.978Z,102159.31
2023-01-21T05:45:11.624Z,102165.91
2023-01-21T05:47:40.431Z,102165.31
2023-01-21T05:50:07.295Z,102169.13
2023-01-21T05:52:33.681Z,102174.59
2023-01-21T05:55:02.848Z,102175.69
2023-01-21T05:57:29.713Z,102182.00
2023-01-21T05:59:56.312Z,102188.31
2023-01-21T06:02:22.570Z,102192.13
2023-01-21T06:04:49.004Z,102199.28
2023-01-21T06:07:15.337Z,102200.72
2023-01-21T06:09:41.821Z,102210.13
2023-01-21T06:12:08.139Z,102207.72
2023-01-21T06:14:34.372Z,102215.53
2023-01-21T06:17:00.588Z,102215.41
2023-01-21T06:19:26.886Z,102220.75
2023-01-21T06:21:53.397Z,102221.41
2023-01-21T06:24:20.066Z,102228.41
2023-01-21T06:26:46.513Z,102226.38
2023-01-21T06:29:12.799Z,102225.09
2023-01-21T06:31:39.633Z,102229.38
2023-01-21T06:34:08.234Z,102236.34
2023-01-21T06:36:34.573Z,102236.22
2023-01-21T06:39:02.131Z,102242.34
2023-01-21T06:41:28.410Z,102247.66
2023-01-21T06:43:55.042Z,102252.41
2023-01-21T06:46:21.298Z,102249.75
2023-01-21T06:48:47.780Z,102253.16
2023-01-21T06:51:14.108Z,102257.09
2023-01-21T06:53:40.956Z,102254.41
2023-01-21T06:56:07.412Z,102260.81
2023-01-21T06:58:35.969Z,102261.97
2023-01-21T07:01:02.311Z,102268.63
2023-01-21T07:03:29.580Z,102265.13
2023-01-21T07:05:56.031Z,102269.88
2023-01-21T07:08:22.601Z,102268.25
2023-01-21T07:10:48.945Z,102277.66
2023-01-21T07:13:16.480Z,102276.09
2023-01-21T07:15:43.101Z,102279.44
2023-01-21T07:18:09.608Z,102274.00
2023-01-21T07:20:36.190Z,102271.56
2023-01-21T07:23:02.957Z,102286.47
2023-01-21T07:25:29.905Z,102282.13
2023-01-21T07:27:58.511Z,102283.56
2023-01-21T07:30:26.061Z,102288.53
2023-01-21T07:32:52.636Z,102288.84
2023-01-21T07:35:19.242Z,102297.44
2023-01-21T07:37:45.579Z,102290.56
2023-01-21T07:40:12.191Z,102294.75
2023-01-21T07:42:38.473Z,102298.66
2023-01-21T07:45:05.155Z,102302.81
2023-01-21T07:47:31.439Z,102304.78
2023-01-21T07:49:57.896Z,102309.78
2023-01-21T07:52:29.467Z,102305.94
2023-01-21T07:54:58.610Z,102312.84
2023-01-21T07:57:25.641Z,102310.69
2023-01-21T07:59:51.939Z,102316.75
2023-01-21T08:02:18.435Z,102311.84
2023-01-21T08:04:44.856Z,102312.41
2023-01-21T08:07:13.204Z,102322.09
2023-01-21T08:09:39.867Z,102332.81
2023-01-21T08:12:07.156Z,102333.38
2023-01-21T08:14:35.422Z,102333.97
2023-01-21T08:17:02.883Z,102344.47
2023-01-21T08:19:29.557Z,102342.34
2023-01-21T08:21:56.429Z,102348.16
2023-01-21T08:24:23.484Z,102352.31
2023-01-21T08:26:49.717Z,102347.97
2023-01-21T08:29:16.858Z,102343.59
2023-01-21T08:31:43.205Z,102352.44
2023-01-21T08:34:13.308Z,102355.50
2023-01-21T08:36:40.113Z,102357.50
2023-01-21T08:39:06.723Z,102357.81
2023-01-21T08:41:33.741Z,102352.59
2023-01-21T08:44:00.383Z,102361.19
2023-01-21T08:46:27.141Z,102361.50
2023-01-21T08:48:53.758Z,102362.66
2023-01-21T08:51:20.022Z,102354.69
2023-01-21T08:53:48.629Z,102358.84
2023-01-21T08:56:15.055Z,102364.41
2023-01-21T08:58:41.758Z,102364.75
2023-01-21T09:01:09.051Z,102366.72
2023-01-21T09:03:35.715Z,102366.16
2023-01-21T09:06:03.072Z,102370.06
2023-01-21T09:08:29.804Z,102370.13
2023-01-21T09:11:02.563Z,102376.78
2023-01-21T09:13:30.778Z,102379.84
2023-01-21T09:15:57.187Z,102375.50
2023-01-21T09:18:25.080Z,102369.44
2023-01-21T09:20:52.584Z,102381.59
2023-01-21T09:23:26.453Z,102383.03
2023-01-21T09:25:53.031Z,102385.22
2023-01-21T09:28:20.009Z,102390.78
2023-01-21T09:30:47.055Z,102393.31
2023-01-21T09:33:14.541Z,102387.25
2023-01-21T09:35:40.898Z,102395.28
2023-01-21T09:38:07.227Z,102397.75
2023-01-21T09:40:34.495Z,102408.78
2023-01-21T09:43:02.883Z,102413.22
2023-01-21T09:45:29.474Z,102412.09
2023-01-21T09:47:56.839Z,102419.31
2023-01-21T09:50:23.949Z,102403.31
2023-01-21T09:52:59.765Z,102418.78
2023-01-21T09:55:36.560Z,102416.59
2023-01-21T09:58:12.761Z,102420.75
2023-01-21T10:00:41.820Z,102410.84
2023-01-21T10:03:23.254Z,102420.53
2023-01-21T10:05:52.615Z,102416.72
2023-01-21T10:08:18.891Z,102411.25
2023-01-21T10:10:51.327Z,102415.97
2023-01-21T10:13:30.420Z,102406.63
2023-01-21T10:15:59.920Z,102417.41
2023-01-21T10:18:30.834Z,102419.13
2023-01-21T10:21:01.201Z,102427.44
2023-01-21T10:23:31.841Z,102429.66
2023-01-21T10:25:59.992Z,102421.97
2023-01-21T10:28:30.338Z,102426.94
2023-01-21T10:31:00.353Z,102419.50
2023-01-21T10:33:28.919Z,102425.31
2023-01-21T10:36:10.452Z,102423.13
2023-01-21T10:38:36.644Z,102426.16
2023-01-21T10:41:19.032Z,102422.88
2023-01-21T10:43:55.917Z,102437.00
2023-01-21T10:46:33.706Z,102435.59
2023-01-21T10:49:09.002Z,102437.00
2023-01-21T10:51:40.432Z,102441.16
2023-01-21T10:54:22.742Z,102445.59
2023-01-21T10:56:55.811Z,102439.25
2023-01-21T10:59:23.947Z,102448.38
2023-01-21T11:01:52.083Z,102450.03
2023-01-21T11:04:20.880Z,102446.69
2023-01-21T11:06:52.806Z,102437.56
2023-01-21T11:09:19.473Z,102442.25
2023-01-21T11:11:46.376Z,102446.97
2023-01-21T11:14:12.618Z,102427.06
2023-01-21T11:16:39.383Z,102434.78
2023-01-21T11:19:07.039Z,102427.31
2023-01-21T11:21:33.433Z,102429.84
2023-01-21T11:24:01.478Z,102423.22
2023-01-21T11:26:32.206Z,102421.56
2023-01-21T11:29:07.765Z,102424.03
2023-01-21T11:31:34.284Z,102419.34
2023-01-21T11:34:17.554Z,102422.69
2023-01-21T11:37:04.080Z,102422.41
2023-01-21T11:39:34.766Z,102420.75
2023-01-21T11:42:18.160Z,102418.53
2023-01-21T11:44:53.790Z,102427.94
2023-01-21T11:47:46.114Z,102425.72
2023-01-21T11:50:17.665Z,102424.63
2023-01-21T11:52:44.765Z,102423.53
2023-01-21T11:55:24.928Z,102428.22
2023-01-21T11:57:53.361Z,102429.88
2023-01-21T12:00:21.185Z,102431.00
2023-01-21T12:02:51.450Z,102436.75
2023-01-21T12:05:37.475Z,102437.03
2023-01-21T12:08:05.963Z,102430.97
2023-01-21T12:10:35.556Z,102437.31
2023-01-21T12:13:17.980Z,102436.22
2023-01-21T12:15:56.332Z,102432.88
2023-01-21T12:18:41.275Z,102438.69
2023-01-21T12:21:17.639Z,102435.91
2023-01-21T12:23:47.043Z,102443.38
2023-01-21T12:26:32.268Z,102435.34
2023-01-21T12:31:44.439Z,102437.28
2023-01-21T12:34:48.301Z,102432.03
2023-01-21T12:37:19.742Z,102432.84
2023-01-21T12:39:48.382Z,102425.97
2023-01-21T12:42:43.785Z,102432.03
2023-01-21T12:45:12.845Z,102426.28
2023-01-21T12:47:39.608Z,102435.66
2023-01-21T12:50:06.011Z,102436.25
2023-01-21T12:52:44.722Z,102430.44
2023-01-21T12:55:16.601Z,102436.53
2023-01-21T12:57:49.800Z,102440.38
2023-01-21T13:00:16.441Z,102434.59
2023-01-21T13:02:56.989Z,102434.84
2023-01-21T13:05:27.491Z,102435.72
2023-01-21T13:07:59.311Z,102442.06
2023-01-21T13:10:29.267Z,102442.91
2023-01-21T13:12:59.611Z,102451.44
2023-01-21T13:15:32.110Z,102445.91
2023-01-21T13:18:01.390Z,102452.53
2023-01-21T13:20:28.035Z,102453.38
2023-01-21T13:22:54.867Z,102455.28
2023-01-21T13:25:38.730Z,102456.41
2023-01-21T13:28:17.398Z,102455.56
2023-01-21T13:30:52.492Z,102460.28
2023-01-21T13:33:28.539Z,102457.75
2023-01-21T13:36:00.470Z,102459.69
2023-01-21T13:38:31.721Z,102460.50
2023-01-21T13:41:02.110Z,102463.28
2023-01-21T13:43:51.521Z,102462.22
2023-01-21T13:46:20.734Z,102455.84
2023-01-21T13:48:50.085Z,102455.84
2023-01-21T13:51:16.438Z,102469.66
2023-01-21T13:53:57.331Z,102461.38
2023-01-21T13:56:24.109Z,102465.50
2023-01-21T13:58:57.787Z,102461.09
2023-01-21T14:01:50.267Z,102463.59
2023-01-21T14:04:21.506Z,102466.66
2023-01-21T14:06:52.990Z,102468.88
2023-01-21T14:09:21.567Z,102459.75
2023-01-21T14:11:59.608Z,102461.97
2023-01-21T14:14:25.832Z,102473.34
2023-01-21T14:17:13.236Z,102462.00
2023-01-21T14:19:54.531Z,102472.53
2023-01-21T14:22:26.115Z,102475.84
2023-01-21T14:25:02.084Z,102475.84
2023-01-21T14:27:41.715Z,102469.22
2023-01-21T14:30:11.333Z,102473.66
2023-01-21T14:32:41.441Z,102473.66
2023-01-21T14:35:29.690Z,102471.72
2023-01-21T14:37:57.067Z,102474.22
2023-01-21T14:40:28.021Z,102470.06
2023-01-21T14:42:54.901Z,102467.31
2023-01-21T14:45:23.393Z,102467.31
2023-01-21T14:47:51.061Z,102463.69
2023-01-21T14:50:36.400Z,102475.00
2023-01-21T14:53:11.812Z,102473.34
2023-01-21T14:55:38.369Z,102478.88
2023-01-21T14:58:07.332Z,102478.88
2023-01-21T15:00:36.253Z,102480.81
2023-01-21T15:03:14.600Z,102481.66
2023-01-21T15:05:43.225Z,102480.00
2023-01-21T15:08:27.362Z,102474.72
2023-01-21T15:11:04.103Z,102479.41
2023-01-21T15:13:34.260Z,102470.56
2023-01-21T15:16:15.200Z,102477.75
2023-01-21T15:18:45.290Z,102476.91
2023-01-21T15:21:29.849Z,102472.50
2023-01-21T15:24:16.125Z,102475.50
2023-01-21T15:27:02.370Z,102471.91
2023-01-21T15:29:36.824Z,102476.38
2023-01-21T15:32:17.413Z,102469.16
2023-01-21T15:34:44.899Z,102474.44
2023-01-21T15:37:19.196Z,102470.84
2023-01-21T15:39:45.654Z,102470.00
2023-01-21T15:42:32.025Z,102465.56
2023-01-21T15:45:05.089Z,102473.03
2023-01-21T15:47:46.754Z,102474.97
2023-01-21T15:50:19.792Z,102479.94
2023-01-21T15:53:04.165Z,102477.19
2023-01-21T15:55:51.575Z,102468.31
2023-01-21T15:58:28.466Z,102469.69
2023-01-21T16:00:58.255Z,102471.88
2023-01-21T16:03:28.788Z,102474.06
2023-01-21T16:06:01.260Z,102467.97
2023-01-21T16:08:30.615Z,102470.47
2023-01-21T16:11:29.605Z,102470.97
2023-01-21T16:14:03.326Z,102465.44
2023-01-21T16:16:55.399Z,102472.31
2023-01-21T16:19:27.008Z,102465.69
2023-01-21T16:21:57.691Z,102463.44
2023-01-21T16:24:26.321Z,102469.47
2023-01-21T16:26:52.759Z,102476.38
2023-01-21T16:29:19.159Z,102471.38
2023-01-21T16:31:46.847Z,102466.38
2023-01-21T16:34:13.471Z,102465.00
2023-01-21T16:36:40.088Z,102468.03
2023-01-21T16:39:08.965Z,102465.78
2023-01-21T16:41:38.017Z,102464.13
2023-01-21T16:44:05.980Z,102468.22
2023-01-21T16:46:39.779Z,102472.38
2023-01-21T16:49:15.674Z,102468.78
2023-01-21T16:51:45.462Z,102471.53
2023-01-21T16:54:21.296Z,102479.22
2023-01-21T16:56:48.513Z,102472.63
2023-01-21T16:59:24.116Z,102485.59
2023-01-21T17:01:51.003Z,102475.38
2023-01-21T17:04:17.693Z,102467.09
2023-01-21T17:06:45.229Z,102478.13
2023-01-21T17:09:41.155Z,102473.72
2023-01-21T17:12:09.959Z,102478.41
2023-01-21T17:14:39.060Z,102472.56
2023-01-21T17:17:07.710Z,102484.44
2023-01-21T17:19:40.706Z,102475.59
2023-01-21T17:22:15.486Z,102476.72
2023-01-21T17:25:06.577Z,102474.22
2023-01-21T17:27:34.629Z,102480.81
2023-01-21T17:30:37.572Z,102488.53
2023-01-21T17:33:12.081Z,102486.88
2023-01-21T17:35:59.868Z,102487.13
2023-01-21T17:38:39.755Z,102486.56
2023-01-21T17:41:14.595Z,102494.84
2023-01-21T17:43:47.085Z,102490.41
2023-01-21T17:46:13.804Z,102499.53
2023-01-21T17:48:44.640Z,102502.28
2023-01-21T17:51:16.445Z,102504.22
2023-01-21T17:53:54.041Z,102495.09
2023-01-21T17:56:37.309Z,102507.22
2023-01-21T17:59:05.741Z,102497.03
2023-01-21T18:01:32.075Z,102502.78
2023-01-21T18:03:58.355Z,102507.47
2023-01-21T18:06:27.634Z,102513.84
2023-01-21T18:08:55.002Z,102498.38
2023-01-21T18:11:22.114Z,102507.75
2023-01-21T18:13:48.739Z,102512.44
2023-01-21T18:16:15.177Z,102499.72
2023-01-21T18:18:42.146Z,102504.41
2023-01-21T18:21:20.078Z,102501.66
2023-01-21T18:23:46.960Z,102511.63
2023-01-21T18:26:20.334Z,102500.00
2023-01-21T18:28:47.268Z,102502.47
2023-01-21T18:31:13.883Z,102493.38
2023-01-21T18:33:42.590Z,102497.81
2023-01-21T18:36:10.541Z,102499.47
2023-01-21T18:38:40.854Z,102492.03
2023-01-21T18:41:10.222Z,102498.94
2023-01-21T18:43:39.367Z,102497.88
2023-01-21T18:46:10.385Z,102499.53
2023-01-21T18:48:36.741Z,102491.56
2023-01-21T18:51:04.747Z,102496.81
2023-01-21T18:53:31.301Z,102500.94
2023-01-21T18:56:00.561Z,102499.59
2023-01-21T18:58:28.349Z,102502.09
2023-01-21T19:00:55.437Z,102497.16
2023-01-21T19:03:23.156Z,102496.06
2023-01-21T19:05:55.728Z,102500.22
2023-01-21T19:08:24.620Z,102484.25
2023-01-21T19:10:53.190Z,102485.06
2023-01-21T19:13:20.833Z,102475.97
2023-01-21T19:15:48.202Z,102477.34
2023-01-21T19:18:16.321Z,102478.75
2023-01-21T19:20:50.260Z,102479.59
2023-01-21T19:23:18.501Z,102486.53
2023-01-21T19:25:50.255Z,102479.91
2023-01-21T19:28:17.700Z,102472.16
2023-01-21T19:30:45.671Z,102481.03
2023-01-21T19:33:12.317Z,102483.53
2023-01-21T19:35:41.069Z,102489.59
2023-01-21T19:38:15.148Z,102488.53
2023-01-21T19:40:42.057Z,102484.91
2023-01-21T19:43:12.709Z,102491.84
2023-01-21T19:45:39.189Z,102491.84
2023-01-21T19:48:10.678Z,102486.31
2023-01-21T19:50:37.098Z,102489.91
2023-01-21T19:53:03.524Z,102489.34
2023-01-21T19:55:33.339Z,102487.41
2023-01-21T19:58:01.046Z,102490.44
2023-01-21T20:00:30.259Z,102482.13
2023-01-21T20:02:57.075Z,102491.28
2023-01-21T20:05:23.509Z,102485.75
2023-01-21T20:07:50.716Z,102484.06
2023-01-21T20:10:18.823Z,102476.63
2023-01-21T20:12:47.573Z,102478.31
2023-01-21T20:15:15.638Z,102472.78
2023-01-21T20:17:44.712Z,102477.22
2023-01-21T20:20:18.632Z,102482.44
2023-01-21T20:22:45.715Z,102483.28
2023-01-21T20:25:16.741Z,102487.69
2023-01-21T20:27:45.894Z,102485.53
2023-01-21T20:30:22.616Z,102478.91
2023-01-21T20:32:49.312Z,102481.38
2023-01-21T20:35:17.092Z,102481.38
2023-01-21T20:37:45.588Z,102484.72
2023-01-21T20:40:30.585Z,102484.72
2023-01-21T20:42:57.498Z,102483.63
2023-01-21T20:45:27.787Z,102480.34
2023-01-21T20:47:56.833Z,102483.09
2023-01-21T20:50:24.711Z,102476.47
2023-01-21T20:52:51.882Z,102476.47
2023-01-21T20:55:20.852Z,102480.91
2023-01-21T20:57:55.926Z,102485.31
2023-01-21T21:00:26.635Z,102491.94
2023-01-21T21:02:56.506Z,102477.84
2023-01-21T21:05:23.968Z,102479.53
2023-01-21T21:07:50.643Z,102482.31
2023-01-21T21:10:34.519Z,102479.53
2023-01-21T21:13:01.011Z,102475.69
2023-01-21T21:15:31.971Z,102474.84
2023-01-21T21:17:58.812Z,102466.81
2023-01-21T21:20:29.856Z,102479.25
2023-01-21T21:22:56.223Z,102481.44
2023-01-21T21:25:27.158Z,102485.25
2023-01-21T21:27:54.592Z,102469.47
2023-01-21T21:30:27.281Z,102464.75
2023-01-21T21:32:55.351Z,102476.34
2023-01-21T21:35:35.641Z,102473.28
2023-01-21T21:38:14.355Z,102462.19
2023-01-21T21:40:42.569Z,102465.22
2023-01-21T21:43:31.296Z,102462.72
2023-01-21T21:46:16.837Z,102467.41
2023-01-21T21:48:44.562Z,102468.50
2023-01-21T21:51:12.386Z,102479.53
2023-01-21T21:53:39.982Z,102477.63
2023-01-21T21:56:24.394Z,102473.75
2023-01-21T21:58:51.062Z,102474.59
2023-01-21T22:01:18.494Z,102475.41
2023-01-21T22:03:48.136Z,102481.78
2023-01-21T22:06:15.099Z,102479.84
2023-01-21T22:08:42.798Z,102484.28
2023-01-21T22:11:15.915Z,102489.78
2023-01-21T22:13:43.371Z,102490.94
2023-01-21T22:16:14.659Z,102485.41
2023-01-21T22:18:42.426Z,102480.44
2023-01-21T22:21:23.816Z,102477.69
2023-01-21T22:23:54.145Z,102483.47
2023-01-21T22:26:25.483Z,102486.25
2023-01-21T22:28:52.128Z,102481.00
2023-01-21T22:31:20.618Z,102479.31
2023-01-21T22:33:47.583Z,102481.50
2023-01-21T22:36:15.283Z,102481.78
2023-01-21T22:38:41.994Z,102476.28
2023-01-21T22:41:09.431Z,102474.03
2023-01-21T22:43:37.912Z,102475.69
2023-01-21T22:46:04.317Z,102478.44
2023-01-21T22:48:31.376Z,102477.63
2023-01-21T22:50:58.801Z,102463.00
2023-01-21T22:53:25.956Z,102461.88
2023-01-21T22:55:53.485Z,102464.91
2023-01-21T22:58:20.101Z,102462.16
2023-01-21T23:00:46.366Z,102464.09
2023-01-21T23:03:13.043Z,102464.09
2023-01-21T23:05:39.577Z,102453.28
2023-01-21T23:08:05.890Z,102460.75
2023-01-21T23:10:32.147Z,102456.31
2023-01-21T23:12:58.503Z,102448.31
2023-01-21T23:15:25.274Z,102443.31
2023-01-21T23:17:52.802Z,102446.09
2023-01-21T23:20:21.958Z,102448.00
2023-01-21T23:22:48.400Z,102435.03
2023-01-21T23:25:14.821Z,102437.81
2023-01-21T23:27:41.075Z,102439.47
2023-01-21T23:30:07.658Z,102441.69
2023-01-21T23:32:34.065Z,102433.41
2023-01-21T23:35:00.323Z,102420.44
2023-01-21T23:37:26.628Z,102415.75
2023-01-21T23:39:53.159Z,102414.94
2023-01-21T23:42:19.532Z,102413.81
2023-01-21T23:44:45.903Z,102413.81
2023-01-21T23:47:12.123Z,102409.41
2023-01-21T23:49:38.396Z,102401.13
2023-01-21T23:52:05.859Z,102396.44
2023-01-21T23:54:32.082Z,102389.00
2023-01-21T23:56:58.279Z,102385.72
2023-01-21T23:59:24.695Z,102383.78
